KCVG/CVG METAR and TAF weather

Enter ICAO airport designator
Station Type Date Time Source
KCVG METAR 2018/01/16 08:52 UTC NOAA

KCVG 160852Z 32008KT 8SM -SN OVC019 M12/M14 A3043 RMK AO2 SNB0757 SLP318 P0000 60000 T11171144 51018 $


Station Type Date Time Source
KCVG Decoded METAR 2018/01/16 08:52 UTC NOAA

CINCINNATI/NORTHERN KY INTERNATIONAL , KY, United States (KCVG) 39-03N 084-40W 269M
Jan 16, 2018 - 03:52 AM EST / 2018.01.16 0852 UTC
Wind: from the NW (320 degrees) at 9 MPH (8 KT):0
Visibility: 8 mile(s):0
Sky conditions: overcast
Weather: light snow
Precipitation last hour: A trace
Temperature: 10.9 F (-11.7 C)
Windchill: -2 F (-19 C):1
Dew Point: 6.1 F (-14.4 C)
Relative Humidity: 80%
Pressure (altimeter): 30.43 in. Hg (1030 hPa)
Pressure tendency: 0.05 inches (1.8 hPa) higher than three hours ago
ob: KCVG 160852Z 32008KT 8SM -SN OVC019 M12/M14 A3043 RMK AO2 SNB0757 SLP318 P0000 60000 T11171144 51018
cycle: 9

Station Type Date Time Source
KCVG TAF 2018/01/16 09:59 UTC NOAA

TAF
AMD KCVG 160859Z 1609/1712 30011KT P6SM SCT018 OVC070
TEMPO 1609/1610 -SN BKN018
FM161100 28007KT P6SM SCT020
FM161900 27007KT P6SM BKN025
FM170400 27005KT P6SM BKN035
FM170900 26004KT P6SM OVC022


Example: see airport list